Kaprijke, Belgium
Current Conditions -  °F | °C
As of 9:25 AM on Friday 24 Oct 2014 (Local Time) from EHFS Reporting Station
Light Rain Light Rain  
Wind Chill: 54°   Ceiling: 3000
Heat Index: 54°   Visibility: 6mi
Dew Point: 52°   Wind: 21mph
Humidity: 94%   Direction: 180°S
Pressure: 30.03"   Gusts: NA
Location:  51.22°N, 3.62°E
Report Text: EHFS 240725Z AUTO 18018KT 9000 -RA SCT024/// BKN030///OVC035/// 12/11 Q1017
Loading
Personal Weather Stations






























Interactive Weather Map
Tropical Storm Tracking
New forecast layout! Learn more

10-Day Weather Forecast

Advertisements
Track Severe Weather on mobile